createdAt,value
2023-05-22T00:01:04.781Z,15.50
2023-05-22T00:03:31.279Z,15.30
2023-05-22T00:05:58.844Z,17.50
2023-05-22T00:08:28.714Z,18.07
2023-05-22T00:10:56.259Z,16.00
2023-05-22T00:13:22.741Z,19.93
2023-05-22T00:15:49.552Z,11.73
2023-05-22T00:18:16.056Z,14.37
2023-05-22T00:20:42.514Z,20.13
2023-05-22T00:23:13.053Z,14.57
2023-05-22T00:25:41.354Z,16.60
2023-05-22T00:28:07.982Z,15.33
2023-05-22T00:30:34.414Z,16.03
2023-05-22T00:33:01.114Z,17.20
2023-05-22T00:35:27.597Z,15.63
2023-05-22T00:37:54.110Z,14.03
2023-05-22T00:40:21.351Z,16.67
2023-05-22T00:42:47.876Z,14.67
2023-05-22T00:45:15.065Z,19.80
2023-05-22T00:47:41.853Z,18.00
2023-05-22T00:50:10.892Z,19.63
2023-05-22T00:52:40.337Z,17.83
2023-05-22T00:55:08.760Z,21.70
2023-05-22T00:57:38.171Z,17.67
2023-05-22T01:00:06.207Z,16.87
2023-05-22T01:02:33.083Z,16.80
2023-05-22T01:04:59.772Z,19.90
2023-05-22T01:07:26.205Z,19.70
2023-05-22T01:09:52.708Z,22.53
2023-05-22T01:12:44.910Z,19.60
2023-05-22T01:15:41.173Z,22.70
2023-05-22T01:18:19.749Z,17.80
2023-05-22T01:21:06.618Z,18.73
2023-05-22T01:24:04.425Z,19.37
2023-05-22T01:26:36.167Z,20.77
2023-05-22T01:29:57.038Z,23.50
2023-05-22T01:32:26.049Z,18.53
2023-05-22T01:34:56.557Z,16.93
2023-05-22T01:37:24.159Z,20.50
2023-05-22T01:39:51.818Z,20.93
2023-05-22T01:42:19.067Z,21.70
2023-05-22T01:44:46.004Z,17.77
2023-05-22T01:47:12.443Z,16.30
2023-05-22T01:49:39.759Z,21.23
2023-05-22T01:52:26.792Z,17.30
2023-05-22T01:55:05.051Z,18.10
2023-05-22T01:57:37.425Z,17.70
2023-05-22T02:00:11.554Z,20.47
2023-05-22T02:02:41.163Z,25.77
2023-05-22T02:05:11.194Z,19.17
2023-05-22T02:07:39.496Z,18.10
2023-05-22T02:10:09.508Z,19.97
2023-05-22T02:12:36.489Z,17.47
2023-05-22T02:15:03.507Z,18.47
2023-05-22T02:17:30.024Z,17.57
2023-05-22T02:19:56.491Z,18.87
2023-05-22T02:22:22.978Z,22.60
2023-05-22T02:24:50.152Z,18.10
2023-05-22T02:27:17.227Z,22.80
2023-05-22T02:29:43.659Z,18.40
2023-05-22T02:32:10.135Z,28.43
2023-05-22T02:34:37.832Z,20.97
2023-05-22T02:37:04.618Z,20.87
2023-05-22T02:39:31.092Z,17.37
2023-05-22T02:41:57.535Z,16.87
2023-05-22T02:44:23.942Z,20.63
2023-05-22T02:46:50.415Z,21.50
2023-05-22T02:49:16.893Z,24.83
2023-05-22T02:51:47.442Z,22.20
2023-05-22T02:54:15.779Z,20.47
2023-05-22T02:56:43.366Z,18.57
2023-05-22T02:59:10.045Z,27.77
2023-05-22T03:01:36.737Z,17.63
2023-05-22T03:04:03.324Z,21.33
2023-05-22T03:06:30.454Z,21.53
2023-05-22T03:08:56.909Z,18.90
2023-05-22T03:11:23.370Z,22.00
2023-05-22T03:13:49.935Z,22.73
2023-05-22T03:16:16.536Z,24.77
2023-05-22T03:18:43.126Z,22.50
2023-05-22T03:21:09.543Z,21.03
2023-05-22T03:23:35.907Z,22.37
2023-05-22T03:26:02.276Z,24.13
2023-05-22T03:28:28.661Z,23.40
2023-05-22T03:30:55.079Z,22.07
2023-05-22T03:33:21.597Z,20.40
2023-05-22T03:35:48.004Z,21.40
2023-05-22T03:38:14.442Z,18.93
2023-05-22T03:40:41.156Z,20.17
2023-05-22T03:43:07.741Z,22.23
2023-05-22T03:45:34.158Z,17.73
2023-05-22T03:48:00.778Z,22.13
2023-05-22T03:50:27.192Z,36.20
2023-05-22T03:52:53.590Z,20.80
2023-05-22T03:55:20.015Z,23.10
2023-05-22T03:57:46.408Z,21.70
2023-05-22T04:00:13.571Z,18.60
2023-05-22T04:02:40.092Z,19.40
2023-05-22T04:05:08.098Z,20.70
2023-05-22T04:07:34.578Z,18.33
2023-05-22T04:10:00.964Z,18.63
2023-05-22T04:12:27.331Z,21.07
2023-05-22T04:14:53.721Z,21.50
2023-05-22T04:17:20.076Z,21.60
2023-05-22T04:19:46.436Z,20.37
2023-05-22T04:22:12.830Z,18.00
2023-05-22T04:24:39.725Z,18.90
2023-05-22T04:27:06.517Z,16.20
2023-05-22T04:29:36.162Z,21.60
2023-05-22T04:32:02.607Z,21.33
2023-05-22T04:34:30.072Z,21.77
2023-05-22T04:36:56.450Z,26.50
2023-05-22T04:39:26.063Z,17.63
2023-05-22T04:41:52.698Z,20.90
2023-05-22T04:44:22.727Z,18.30
2023-05-22T04:46:50.156Z,18.40
2023-05-22T04:49:16.623Z,18.90
2023-05-22T04:51:43.061Z,19.47
2023-05-22T04:54:09.440Z,20.93
2023-05-22T04:56:37.157Z,21.50
2023-05-22T04:59:04.641Z,23.60
2023-05-22T05:01:32.894Z,21.60
2023-05-22T05:03:59.766Z,19.90
2023-05-22T05:06:26.153Z,19.57
2023-05-22T05:08:52.827Z,20.67
2023-05-22T05:11:19.234Z,23.83
2023-05-22T05:13:45.677Z,19.80
2023-05-22T05:16:12.158Z,20.40
2023-05-22T05:18:38.798Z,22.57
2023-05-22T05:21:05.213Z,20.80
2023-05-22T05:23:31.584Z,24.50
2023-05-22T05:25:57.985Z,25.17
2023-05-22T05:28:24.421Z,18.13
2023-05-22T05:30:50.876Z,23.13
2023-05-22T05:33:17.244Z,23.17
2023-05-22T05:35:43.666Z,27.23
2023-05-22T05:38:10.140Z,24.03
2023-05-22T05:40:36.596Z,23.73
2023-05-22T05:43:03.485Z,20.27
2023-05-22T05:45:30.175Z,20.50
2023-05-22T05:47:56.689Z,21.90
2023-05-22T05:50:23.077Z,22.03
2023-05-22T05:52:49.466Z,18.23
2023-05-22T05:55:16.686Z,18.47
2023-05-22T05:57:43.118Z,15.43
2023-05-22T06:00:11.565Z,18.23
2023-05-22T06:02:38.225Z,18.20
2023-05-22T06:05:05.301Z,17.80
2023-05-22T06:07:32.141Z,20.70
2023-05-22T06:09:58.924Z,17.30
2023-05-22T06:12:25.308Z,13.83
2023-05-22T06:14:51.689Z,13.23
2023-05-22T06:17:18.092Z,11.00
2023-05-22T06:19:44.524Z,16.93
2023-05-22T06:22:11.087Z,12.90
2023-05-22T06:24:37.462Z,13.97
2023-05-22T06:27:03.961Z,15.70
2023-05-22T06:29:30.363Z,12.03
2023-05-22T06:31:56.926Z,12.53
2023-05-22T06:34:23.459Z,17.03
2023-05-22T06:36:52.566Z,16.03
2023-05-22T06:39:18.965Z,13.23
2023-05-22T06:41:45.468Z,11.47
2023-05-22T06:44:12.856Z,16.50
2023-05-22T06:46:39.388Z,12.90
2023-05-22T06:49:06.076Z,11.27
2023-05-22T06:51:32.892Z,19.60
2023-05-22T06:53:59.570Z,15.13
2023-05-22T06:56:25.990Z,13.53
2023-05-22T06:58:52.375Z,12.13
2023-05-22T07:01:19.105Z,14.27
2023-05-22T07:03:45.674Z,11.50
2023-05-22T07:06:12.240Z,11.50
2023-05-22T07:08:38.742Z,19.03
2023-05-22T07:11:07.416Z,12.13
2023-05-22T07:13:33.860Z,13.13
2023-05-22T07:16:00.352Z,10.67
2023-05-22T07:18:26.785Z,11.80
2023-05-22T07:20:53.306Z,9.40
2023-05-22T07:23:19.696Z,11.13
2023-05-22T07:25:46.085Z,20.87
2023-05-22T07:28:12.515Z,9.03
2023-05-22T07:30:39.448Z,12.10
2023-05-22T07:33:06.308Z,13.00
2023-05-22T07:35:32.796Z,11.27
2023-05-22T07:37:59.180Z,15.93
2023-05-22T07:40:26.552Z,14.30
2023-05-22T07:42:53.371Z,9.77
2023-05-22T07:45:20.048Z,11.70
2023-05-22T07:47:46.571Z,13.00
2023-05-22T07:50:12.991Z,9.30
2023-05-22T07:52:39.358Z,12.47
2023-05-22T07:55:07.663Z,10.50
2023-05-22T07:57:36.146Z,11.30
2023-05-22T08:00:10.172Z,8.50
2023-05-22T08:02:36.696Z,8.80
2023-05-22T08:05:04.393Z,7.23
2023-05-22T08:07:32.851Z,8.93
2023-05-22T08:09:59.416Z,9.80
2023-05-22T08:12:25.829Z,9.17
2023-05-22T08:14:52.435Z,8.90
2023-05-22T08:17:18.881Z,10.43
2023-05-22T08:19:46.188Z,12.20
2023-05-22T08:22:12.692Z,10.70
2023-05-22T08:24:39.340Z,9.90
2023-05-22T08:27:05.948Z,12.20
2023-05-22T08:29:32.502Z,13.90
2023-05-22T08:32:00.335Z,9.90
2023-05-22T08:34:28.277Z,9.90
2023-05-22T08:36:54.675Z,8.40
2023-05-22T08:39:21.188Z,11.97
2023-05-22T08:41:47.809Z,11.07
2023-05-22T08:44:14.276Z,10.77
2023-05-22T08:46:45.278Z,11.60
2023-05-22T08:49:13.131Z,15.77
2023-05-22T08:51:42.166Z,10.13
2023-05-22T08:54:09.774Z,8.77
2023-05-22T08:56:42.707Z,10.27
2023-05-22T08:59:12.774Z,11.57
2023-05-22T09:01:39.367Z,8.60
2023-05-22T09:04:05.847Z,10.50
2023-05-22T09:06:32.521Z,8.20
2023-05-22T09:09:03.175Z,10.40
2023-05-22T09:11:29.663Z,9.10
2023-05-22T09:14:12.218Z,12.00
2023-05-22T09:16:51.349Z,11.47
2023-05-22T09:19:17.943Z,8.63
2023-05-22T09:21:44.645Z,8.30
2023-05-22T09:24:11.351Z,9.67
2023-05-22T09:26:41.130Z,11.13
2023-05-22T09:29:08.055Z,9.67
2023-05-22T09:31:42.691Z,14.87
2023-05-22T09:34:11.070Z,11.20
2023-05-22T09:36:37.467Z,7.93
2023-05-22T09:39:04.681Z,8.87
2023-05-22T09:41:35.772Z,7.70
2023-05-22T09:44:06.768Z,9.20
2023-05-22T09:46:40.213Z,9.37
2023-05-22T09:49:06.683Z,8.80
2023-05-22T09:51:35.681Z,13.33
2023-05-22T09:54:07.775Z,8.63
2023-05-22T09:56:39.701Z,8.50
2023-05-22T09:59:09.268Z,9.23
2023-05-22T10:01:37.373Z,11.43
2023-05-22T10:04:04.648Z,11.13
2023-05-22T10:06:33.831Z,8.10
2023-05-22T10:09:06.951Z,7.73
2023-05-22T10:11:34.218Z,11.07
2023-05-22T10:14:02.578Z,9.80
2023-05-22T10:16:30.143Z,8.70
2023-05-22T10:18:57.520Z,9.80
2023-05-22T10:21:25.297Z,10.30
2023-05-22T10:23:52.254Z,11.03
2023-05-22T10:26:19.766Z,9.77
2023-05-22T10:28:52.753Z,9.30
2023-05-22T10:31:30.004Z,8.00
2023-05-22T10:34:02.739Z,9.67
2023-05-22T10:37:18.016Z,11.37
2023-05-22T10:39:58.414Z,9.57
2023-05-22T10:42:29.605Z,11.10
2023-05-22T10:44:55.981Z,11.40
2023-05-22T10:47:22.472Z,10.37
2023-05-22T10:49:50.676Z,7.03
2023-05-22T10:52:21.705Z,9.27
2023-05-22T10:54:53.375Z,10.27
2023-05-22T10:57:20.555Z,9.40
2023-05-22T10:59:47.505Z,10.40
2023-05-22T11:02:31.358Z,9.73
2023-05-22T11:05:22.693Z,7.73
2023-05-22T11:07:49.225Z,11.53
2023-05-22T11:10:26.028Z,10.47
2023-05-22T11:13:29.342Z,9.20
2023-05-22T11:15:57.542Z,8.83
2023-05-22T11:18:28.218Z,8.27
2023-05-22T11:20:55.745Z,9.50
2023-05-22T11:23:25.174Z,16.50
2023-05-22T11:25:51.615Z,15.57
2023-05-22T11:28:18.018Z,12.17
2023-05-22T11:30:44.700Z,9.43
2023-05-22T11:33:12.646Z,9.00
2023-05-22T11:35:39.860Z,9.10
2023-05-22T11:38:07.020Z,7.90
2023-05-22T11:40:33.838Z,8.30
2023-05-22T11:43:00.492Z,10.17
2023-05-22T11:45:26.999Z,7.70
2023-05-22T11:47:53.466Z,9.37
2023-05-22T11:52:50.013Z,11.23
2023-05-22T11:55:16.391Z,7.13
2023-05-22T11:57:43.145Z,12.93
2023-05-22T12:00:10.629Z,11.63
2023-05-22T12:02:37.205Z,12.77
2023-05-22T12:05:04.486Z,7.70
2023-05-22T12:07:31.541Z,14.63
2023-05-22T12:09:58.839Z,12.20
2023-05-22T12:12:25.800Z,8.80
2023-05-22T12:14:52.947Z,10.00
2023-05-22T12:17:19.406Z,6.37
2023-05-22T12:19:48.749Z,7.90
2023-05-22T12:22:15.188Z,10.00
2023-05-22T12:24:45.911Z,9.40
2023-05-22T12:27:13.471Z,17.00
2023-05-22T12:29:40.961Z,9.90
2023-05-22T12:32:12.219Z,8.00
2023-05-22T12:34:46.420Z,8.50
2023-05-22T12:37:25.290Z,8.97
2023-05-22T12:39:59.482Z,13.87
2023-05-22T12:42:27.211Z,12.40
2023-05-22T12:44:55.916Z,11.80
2023-05-22T12:47:23.674Z,9.70
2023-05-22T12:49:50.871Z,14.50
2023-05-22T12:52:17.384Z,10.27
2023-05-22T12:54:43.806Z,12.20
2023-05-22T12:57:10.320Z,11.77
2023-05-22T12:59:39.406Z,10.03
2023-05-22T13:02:06.183Z,8.67
2023-05-22T13:04:32.924Z,10.73
2023-05-22T13:06:59.393Z,9.37
2023-05-22T13:09:25.849Z,12.80
2023-05-22T13:11:52.427Z,6.77
2023-05-22T13:14:18.907Z,8.80
2023-05-22T13:16:45.414Z,9.13
2023-05-22T13:19:11.858Z,10.30
2023-05-22T13:21:38.349Z,7.80
2023-05-22T13:24:04.828Z,11.90
2023-05-22T13:26:31.205Z,10.50
2023-05-22T13:28:57.589Z,17.40
2023-05-22T13:31:24.028Z,11.10
2023-05-22T13:33:50.585Z,9.37
2023-05-22T13:36:18.067Z,15.63
2023-05-22T13:38:44.534Z,11.93
2023-05-22T13:41:11.268Z,16.47
2023-05-22T13:43:37.643Z,10.67
2023-05-22T13:46:04.372Z,6.63
2023-05-22T13:48:31.088Z,8.70
2023-05-22T13:50:57.619Z,7.47
2023-05-22T13:53:24.011Z,8.73
2023-05-22T13:55:50.976Z,9.77
2023-05-22T13:58:17.379Z,8.97
2023-05-22T14:00:43.796Z,8.80
2023-05-22T14:03:11.640Z,7.77
2023-05-22T14:05:38.384Z,8.83
2023-05-22T14:08:05.021Z,9.50
2023-05-22T14:10:31.381Z,11.23
2023-05-22T14:12:57.769Z,15.80
2023-05-22T14:15:24.402Z,6.70
2023-05-22T14:17:50.933Z,9.53
2023-05-22T14:20:17.514Z,8.10
2023-05-22T14:22:56.427Z,8.70
2023-05-22T14:25:24.467Z,8.87
2023-05-22T14:27:51.008Z,7.10
2023-05-22T14:30:17.597Z,7.90
2023-05-22T14:32:44.090Z,11.20
2023-05-22T14:35:10.971Z,19.63
2023-05-22T14:37:37.395Z,10.10
2023-05-22T14:40:04.716Z,11.47
2023-05-22T14:42:31.126Z,8.77
2023-05-22T14:44:58.022Z,9.40
2023-05-22T14:47:24.669Z,7.30
2023-05-22T14:49:51.678Z,11.03
2023-05-22T14:52:19.132Z,7.00
2023-05-22T14:54:45.819Z,8.70
2023-05-22T14:57:12.309Z,9.20
2023-05-22T14:59:38.705Z,9.53
2023-05-22T15:02:05.365Z,15.00
2023-05-22T15:04:31.759Z,14.70
2023-05-22T15:06:58.173Z,7.77
2023-05-22T15:09:24.566Z,9.10
2023-05-22T15:11:51.118Z,6.40
2023-05-22T15:14:17.882Z,8.20
2023-05-22T15:16:44.471Z,9.10
2023-05-22T15:19:11.159Z,9.70
2023-05-22T15:21:37.732Z,7.77
2023-05-22T15:24:04.493Z,11.60
2023-05-22T15:26:31.004Z,12.00
2023-05-22T15:29:01.363Z,8.37
2023-05-22T15:31:31.533Z,6.97
2023-05-22T15:33:58.150Z,8.60
2023-05-22T15:36:24.545Z,7.53
2023-05-22T15:38:50.971Z,8.50
2023-05-22T15:41:17.423Z,9.80
2023-05-22T15:43:44.459Z,8.63
2023-05-22T15:46:14.299Z,8.27
2023-05-22T15:48:40.833Z,6.60
2023-05-22T15:51:09.524Z,8.73
2023-05-22T15:53:36.058Z,7.93
2023-05-22T15:56:02.716Z,13.33
2023-05-22T15:58:30.119Z,7.70
2023-05-22T16:00:56.832Z,7.10
2023-05-22T16:03:23.419Z,6.40
2023-05-22T16:05:49.959Z,6.90
2023-05-22T16:08:16.850Z,9.50
2023-05-22T16:10:44.393Z,7.80
2023-05-22T16:13:11.129Z,9.63
2023-05-22T16:15:39.891Z,6.93
2023-05-22T16:18:07.267Z,6.10
2023-05-22T16:20:35.096Z,6.70
2023-05-22T16:23:01.811Z,6.80
2023-05-22T16:25:28.199Z,7.10
2023-05-22T16:27:54.599Z,6.07
2023-05-22T16:30:21.175Z,6.50
2023-05-22T16:32:48.498Z,8.83
2023-05-22T16:35:15.698Z,6.63
2023-05-22T16:37:42.140Z,6.13
2023-05-22T16:40:11.773Z,5.80
2023-05-22T16:42:38.335Z,8.57
2023-05-22T16:45:07.114Z,8.37
2023-05-22T16:47:33.656Z,6.00
2023-05-22T16:50:00.371Z,8.60
2023-05-22T16:52:26.878Z,5.20
2023-05-22T16:54:53.683Z,6.37
2023-05-22T16:57:20.064Z,7.90
2023-05-22T16:59:46.640Z,8.43
2023-05-22T17:02:13.558Z,7.20
2023-05-22T17:04:40.908Z,6.33
2023-05-22T17:07:07.353Z,12.73
2023-05-22T17:09:33.958Z,9.43
2023-05-22T17:12:00.484Z,10.00
2023-05-22T17:14:26.864Z,8.00
2023-05-22T17:16:54.233Z,11.27
2023-05-22T17:19:21.321Z,9.10
2023-05-22T17:21:47.896Z,10.50
2023-05-22T17:24:14.906Z,8.80
2023-05-22T17:26:41.632Z,8.13
2023-05-22T17:29:08.797Z,12.53
2023-05-22T17:31:36.820Z,9.03
2023-05-22T17:34:05.384Z,10.53
2023-05-22T17:36:32.296Z,18.60
2023-05-22T17:39:01.592Z,18.33
2023-05-22T17:41:28.062Z,11.67
2023-05-22T17:43:56.930Z,11.07
2023-05-22T17:46:23.352Z,10.30
2023-05-22T17:48:49.798Z,10.50
2023-05-22T17:51:16.249Z,11.33
2023-05-22T17:53:42.659Z,15.70
2023-05-22T17:56:09.272Z,23.33
2023-05-22T17:58:35.757Z,10.77
2023-05-22T18:01:02.191Z,9.97
2023-05-22T18:03:28.807Z,10.57
2023-05-22T18:05:55.273Z,11.03
2023-05-22T18:08:21.808Z,11.40
2023-05-22T18:10:48.929Z,12.53
2023-05-22T18:13:15.433Z,10.97
2023-05-22T18:15:41.971Z,12.37
2023-05-22T18:18:09.995Z,11.23
2023-05-22T18:20:38.189Z,10.23
2023-05-22T18:23:04.663Z,13.60
2023-05-22T18:25:31.037Z,12.33
2023-05-22T18:27:57.423Z,15.07
2023-05-22T18:30:23.794Z,15.17
2023-05-22T18:32:50.342Z,12.17
2023-05-22T18:35:17.016Z,11.83
2023-05-22T18:37:43.478Z,18.23
2023-05-22T18:40:10.857Z,14.63
2023-05-22T18:42:37.288Z,10.13
2023-05-22T18:45:05.520Z,13.17
2023-05-22T18:47:32.150Z,11.37
2023-05-22T18:49:58.544Z,16.40
2023-05-22T18:52:24.917Z,10.93
2023-05-22T18:54:51.307Z,18.47
2023-05-22T18:57:17.798Z,12.30
2023-05-22T18:59:45.962Z,17.13
2023-05-22T19:02:12.413Z,11.77
2023-05-22T19:04:38.986Z,14.80
2023-05-22T19:07:05.443Z,15.13
2023-05-22T19:09:31.883Z,18.83
2023-05-22T19:11:58.281Z,15.00
2023-05-22T19:14:24.677Z,19.40
2023-05-22T19:16:51.222Z,19.23
2023-05-22T19:19:17.877Z,13.80
2023-05-22T19:21:44.377Z,14.90
2023-05-22T19:24:10.921Z,13.47
2023-05-22T19:26:37.326Z,13.77
2023-05-22T19:29:03.791Z,13.70
2023-05-22T19:31:30.359Z,18.67
2023-05-22T19:33:56.865Z,11.20
2023-05-22T19:36:23.270Z,15.97
2023-05-22T19:38:50.699Z,11.43
2023-05-22T19:41:19.005Z,14.23
2023-05-22T19:43:45.728Z,15.63
2023-05-22T19:46:12.122Z,16.93
2023-05-22T19:48:38.613Z,17.10
2023-05-22T19:51:05.184Z,14.97
2023-05-22T19:53:32.515Z,16.77
2023-05-22T19:55:58.991Z,14.97
2023-05-22T19:58:25.587Z,13.57
2023-05-22T20:00:52.460Z,19.90
2023-05-22T20:03:20.338Z,13.83
2023-05-22T20:05:47.170Z,15.17
2023-05-22T20:08:14.143Z,17.73
2023-05-22T20:10:41.107Z,17.90
2023-05-22T20:13:07.712Z,15.60
2023-05-22T20:15:34.304Z,15.43
2023-05-22T20:18:02.506Z,16.13
2023-05-22T20:20:29.152Z,12.30
2023-05-22T20:22:55.622Z,15.27
2023-05-22T20:25:22.188Z,14.13
2023-05-22T20:27:49.032Z,25.30
2023-05-22T20:30:15.896Z,12.33
2023-05-22T20:32:45.420Z,14.87
2023-05-22T20:35:13.095Z,15.10
2023-05-22T20:37:40.918Z,19.90
2023-05-22T20:40:09.216Z,11.17
2023-05-22T20:42:39.171Z,16.67
2023-05-22T20:45:06.150Z,15.70
2023-05-22T20:47:37.556Z,15.17
2023-05-22T20:50:04.415Z,13.20
2023-05-22T20:52:30.813Z,13.70
2023-05-22T20:54:57.855Z,19.17
2023-05-22T20:57:25.121Z,17.00
2023-05-22T20:59:54.828Z,20.00
2023-05-22T21:02:21.393Z,12.37
2023-05-22T21:04:47.777Z,13.67
2023-05-22T21:07:14.136Z,15.83
2023-05-22T21:09:40.679Z,13.67
2023-05-22T21:12:07.449Z,16.13
2023-05-22T21:14:33.833Z,21.73
2023-05-22T21:17:00.383Z,15.90
2023-05-22T21:19:26.904Z,15.63
2023-05-22T21:21:53.365Z,19.03
2023-05-22T21:24:20.717Z,15.47
2023-05-22T21:26:47.129Z,13.47
2023-05-22T21:29:13.496Z,17.80
2023-05-22T21:31:39.945Z,16.30
2023-05-22T21:34:06.380Z,15.57
2023-05-22T21:36:32.739Z,14.50
2023-05-22T21:39:00.357Z,19.50
2023-05-22T21:41:27.602Z,14.00
2023-05-22T21:43:54.021Z,16.53
2023-05-22T21:46:22.479Z,15.60
2023-05-22T21:48:49.074Z,19.20
2023-05-22T21:51:15.808Z,15.13
2023-05-22T21:53:42.495Z,23.40
2023-05-22T21:56:09.245Z,22.63
2023-05-22T21:58:35.662Z,23.27
2023-05-22T22:01:02.079Z,18.70
2023-05-22T22:03:28.567Z,23.13
2023-05-22T22:05:55.049Z,19.23
2023-05-22T22:08:21.442Z,16.20
2023-05-22T22:10:47.830Z,18.30
2023-05-22T22:13:14.295Z,16.43
2023-05-22T22:15:40.680Z,18.83
2023-05-22T22:18:07.088Z,16.50
2023-05-22T22:20:44.342Z,15.77
2023-05-22T22:23:11.641Z,19.47
2023-05-22T22:25:39.174Z,21.93
2023-05-22T22:28:05.990Z,21.70
2023-05-22T22:30:32.583Z,18.40
2023-05-22T22:32:59.311Z,20.27
2023-05-22T22:35:25.905Z,19.20
2023-05-22T22:37:52.326Z,22.13
2023-05-22T22:40:19.012Z,17.50
2023-05-22T22:42:45.393Z,23.70
2023-05-22T22:45:11.811Z,20.00
2023-05-22T22:47:38.967Z,15.73
2023-05-22T22:50:05.702Z,16.60
2023-05-22T22:52:32.120Z,16.57
2023-05-22T22:54:58.547Z,15.87
2023-05-22T22:57:25.074Z,20.90
2023-05-22T22:59:51.514Z,17.63
2023-05-22T23:02:17.914Z,17.47
2023-05-22T23:04:44.382Z,20.50
2023-05-22T23:07:11.046Z,19.77
2023-05-22T23:09:37.705Z,16.23
2023-05-22T23:12:06.244Z,17.83
2023-05-22T23:14:32.628Z,15.50
2023-05-22T23:16:59.013Z,18.37
2023-05-22T23:19:25.393Z,17.87
2023-05-22T23:21:51.841Z,16.03
2023-05-22T23:24:18.256Z,22.20
2023-05-22T23:26:44.670Z,22.33
2023-05-22T23:29:11.105Z,24.13
2023-05-22T23:31:37.532Z,19.87
2023-05-22T23:34:03.996Z,17.73
2023-05-22T23:36:30.793Z,18.87
2023-05-22T23:38:57.447Z,18.20
2023-05-22T23:41:24.741Z,16.77
2023-05-22T23:43:51.214Z,20.80
2023-05-22T23:46:17.912Z,16.10
2023-05-22T23:48:44.378Z,18.43
2023-05-22T23:51:14.317Z,19.87
2023-05-22T23:53:41.857Z,21.33
2023-05-22T23:56:08.993Z,21.70
2023-05-22T23:58:35.662Z,20.23
